sensor_id;sensor_type;location;lat;lon;timestamp;P1;durP1;ratioP1;P2;durP2;ratioP2
45792;SDS011;31495;42.740;22.908;2024-01-30T00:00:23;8.05;;;4.47;;
45792;SDS011;31495;42.740;22.908;2024-01-30T00:01:23;13.38;;;5.22;;
45792;SDS011;31495;42.740;22.908;2024-01-30T00:02:22;7.43;;;4.05;;
45792;SDS011;31495;42.740;22.908;2024-01-30T00:03:22;7.97;;;4.78;;
45792;SDS011;31495;42.740;22.908;2024-01-30T00:04:21;10.18;;;5.78;;
45792;SDS011;31495;42.740;22.908;2024-01-30T00:05:20;9.77;;;4.72;;
45792;SDS011;31495;42.740;22.908;2024-01-30T00:06:20;10.32;;;5.65;;
45792;SDS011;31495;42.740;22.908;2024-01-30T00:07:20;10.43;;;5.72;;
45792;SDS011;31495;42.740;22.908;2024-01-30T00:08:20;12.05;;;6.38;;
45792;SDS011;31495;42.740;22.908;2024-01-30T00:09:19;12.88;;;6.22;;
45792;SDS011;31495;42.740;22.908;2024-01-30T00:10:18;10.27;;;5.82;;
45792;SDS011;31495;42.740;22.908;2024-01-30T00:11:18;10.05;;;5.70;;
45792;SDS011;31495;42.740;22.908;2024-01-30T00:12:17;9.57;;;5.28;;
45792;SDS011;31495;42.740;22.908;2024-01-30T00:13:17;9.70;;;5.50;;
45792;SDS011;31495;42.740;22.908;2024-01-30T00:14:18;10.68;;;4.80;;
45792;SDS011;31495;42.740;22.908;2024-01-30T00:15:18;7.22;;;4.25;;
45792;SDS011;31495;42.740;22.908;2024-01-30T00:16:21;7.97;;;4.22;;
45792;SDS011;31495;42.740;22.908;2024-01-30T00:17:21;7.45;;;4.55;;
45792;SDS011;31495;42.740;22.908;2024-01-30T00:18:20;7.35;;;4.25;;
45792;SDS011;31495;42.740;22.908;2024-01-30T00:19:20;8.88;;;4.60;;
45792;SDS011;31495;42.740;22.908;2024-01-30T00:20:20;9.38;;;3.92;;
45792;SDS011;31495;42.740;22.908;2024-01-30T00:21:20;7.10;;;3.60;;
45792;SDS011;31495;42.740;22.908;2024-01-30T00:22:20;8.30;;;4.30;;
45792;SDS011;31495;42.740;22.908;2024-01-30T00:23:19;9.35;;;4.80;;
45792;SDS011;31495;42.740;22.908;2024-01-30T00:24:19;8.45;;;4.28;;
45792;SDS011;31495;42.740;22.908;2024-01-30T00:25:19;10.60;;;4.75;;
45792;SDS011;31495;42.740;22.908;2024-01-30T00:26:18;7.07;;;3.90;;
45792;SDS011;31495;42.740;22.908;2024-01-30T00:27:18;9.15;;;4.05;;
45792;SDS011;31495;42.740;22.908;2024-01-30T00:28:18;9.50;;;4.90;;
45792;SDS011;31495;42.740;22.908;2024-01-30T00:29:18;12.35;;;4.63;;
45792;SDS011;31495;42.740;22.908;2024-01-30T00:30:20;11.43;;;5.22;;
45792;SDS011;31495;42.740;22.908;2024-01-30T00:31:20;12.93;;;5.78;;
45792;SDS011;31495;42.740;22.908;2024-01-30T00:32:19;13.30;;;6.35;;
45792;SDS011;31495;42.740;22.908;2024-01-30T00:33:19;16.10;;;7.35;;
45792;SDS011;31495;42.740;22.908;2024-01-30T00:34:18;17.25;;;7.65;;
45792;SDS011;31495;42.740;22.908;2024-01-30T00:35:19;14.43;;;6.72;;
45792;SDS011;31495;42.740;22.908;2024-01-30T00:36:19;13.30;;;7.15;;
45792;SDS011;31495;42.740;22.908;2024-01-30T00:37:19;15.65;;;6.78;;
45792;SDS011;31495;42.740;22.908;2024-01-30T00:38:19;13.50;;;6.53;;
45792;SDS011;31495;42.740;22.908;2024-01-30T00:39:19;18.08;;;7.72;;
45792;SDS011;31495;42.740;22.908;2024-01-30T00:40:19;20.23;;;8.52;;
45792;SDS011;31495;42.740;22.908;2024-01-30T00:41:19;17.00;;;8.20;;
45792;SDS011;31495;42.740;22.908;2024-01-30T00:42:19;16.50;;;8.18;;
45792;SDS011;31495;42.740;22.908;2024-01-30T00:43:19;19.42;;;7.78;;
45792;SDS011;31495;42.740;22.908;2024-01-30T00:44:20;14.45;;;7.35;;
45792;SDS011;31495;42.740;22.908;2024-01-30T00:45:20;14.18;;;6.75;;
45792;SDS011;31495;42.740;22.908;2024-01-30T00:46:20;14.30;;;7.05;;
45792;SDS011;31495;42.740;22.908;2024-01-30T00:47:20;18.10;;;8.00;;
45792;SDS011;31495;42.740;22.908;2024-01-30T00:48:20;16.23;;;7.55;;
45792;SDS011;31495;42.740;22.908;2024-01-30T00:49:20;14.00;;;7.05;;
45792;SDS011;31495;42.740;22.908;2024-01-30T00:50:20;17.13;;;7.75;;
45792;SDS011;31495;42.740;22.908;2024-01-30T00:51:20;15.50;;;7.40;;
45792;SDS011;31495;42.740;22.908;2024-01-30T00:52:20;18.00;;;8.88;;
45792;SDS011;31495;42.740;22.908;2024-01-30T00:53:20;14.45;;;7.47;;
45792;SDS011;31495;42.740;22.908;2024-01-30T00:54:22;18.17;;;9.32;;
45792;SDS011;31495;42.740;22.908;2024-01-30T00:55:22;16.17;;;8.00;;
45792;SDS011;31495;42.740;22.908;2024-01-30T00:56:21;18.80;;;8.93;;
45792;SDS011;31495;42.740;22.908;2024-01-30T00:57:21;19.67;;;8.65;;
45792;SDS011;31495;42.740;22.908;2024-01-30T00:58:21;17.38;;;7.78;;
45792;SDS011;31495;42.740;22.908;2024-01-30T00:59:21;18.60;;;7.65;;
45792;SDS011;31495;42.740;22.908;2024-01-30T01:00:21;16.55;;;7.10;;
45792;SDS011;31495;42.740;22.908;2024-01-30T01:01:21;12.30;;;6.00;;
45792;SDS011;31495;42.740;22.908;2024-01-30T01:02:21;10.43;;;4.80;;
45792;SDS011;31495;42.740;22.908;2024-01-30T01:03:21;9.65;;;5.03;;
45792;SDS011;31495;42.740;22.908;2024-01-30T01:04:21;11.60;;;6.13;;
45792;SDS011;31495;42.740;22.908;2024-01-30T01:05:21;9.75;;;5.00;;
45792;SDS011;31495;42.740;22.908;2024-01-30T01:06:21;14.02;;;6.82;;
45792;SDS011;31495;42.740;22.908;2024-01-30T01:07:21;13.25;;;6.50;;
45792;SDS011;31495;42.740;22.908;2024-01-30T01:08:21;8.30;;;4.80;;
45792;SDS011;31495;42.740;22.908;2024-01-30T01:09:21;17.17;;;6.40;;
45792;SDS011;31495;42.740;22.908;2024-01-30T01:10:21;12.10;;;6.10;;
45792;SDS011;31495;42.740;22.908;2024-01-30T01:11:21;12.83;;;6.63;;
45792;SDS011;31495;42.740;22.908;2024-01-30T01:12:22;13.32;;;5.68;;
45792;SDS011;31495;42.740;22.908;2024-01-30T01:13:22;13.55;;;5.60;;
45792;SDS011;31495;42.740;22.908;2024-01-30T01:14:22;10.70;;;4.80;;
45792;SDS011;31495;42.740;22.908;2024-01-30T01:15:22;11.50;;;4.80;;
45792;SDS011;31495;42.740;22.908;2024-01-30T01:16:22;7.18;;;4.10;;
45792;SDS011;31495;42.740;22.908;2024-01-30T01:17:22;16.15;;;8.73;;
45792;SDS011;31495;42.740;22.908;2024-01-30T01:18:22;15.52;;;6.15;;
45792;SDS011;31495;42.740;22.908;2024-01-30T01:19:22;10.95;;;4.75;;
45792;SDS011;31495;42.740;22.908;2024-01-30T01:20:22;9.07;;;4.45;;
45792;SDS011;31495;42.740;22.908;2024-01-30T01:21:22;14.20;;;5.53;;
45792;SDS011;31495;42.740;22.908;2024-01-30T01:22:25;10.35;;;4.72;;
45792;SDS011;31495;42.740;22.908;2024-01-30T01:23:24;9.57;;;4.43;;
45792;SDS011;31495;42.740;22.908;2024-01-30T01:24:24;13.60;;;5.50;;
45792;SDS011;31495;42.740;22.908;2024-01-30T01:25:23;10.07;;;5.53;;
45792;SDS011;31495;42.740;22.908;2024-01-30T01:26:23;9.57;;;5.25;;
45792;SDS011;31495;42.740;22.908;2024-01-30T01:27:23;12.18;;;5.43;;
45792;SDS011;31495;42.740;22.908;2024-01-30T01:28:23;11.10;;;5.05;;
45792;SDS011;31495;42.740;22.908;2024-01-30T01:29:23;8.77;;;4.22;;
45792;SDS011;31495;42.740;22.908;2024-01-30T01:30:27;8.60;;;3.65;;
45792;SDS011;31495;42.740;22.908;2024-01-30T01:31:28;11.90;;;4.57;;
45792;SDS011;31495;42.740;22.908;2024-01-30T01:32:29;9.07;;;4.30;;
45792;SDS011;31495;42.740;22.908;2024-01-30T01:33:28;6.93;;;3.45;;
45792;SDS011;31495;42.740;22.908;2024-01-30T01:34:28;10.23;;;4.85;;
45792;SDS011;31495;42.740;22.908;2024-01-30T01:35:28;10.30;;;3.95;;
45792;SDS011;31495;42.740;22.908;2024-01-30T01:36:27;8.57;;;4.10;;
45792;SDS011;31495;42.740;22.908;2024-01-30T01:37:27;6.40;;;3.38;;
45792;SDS011;31495;42.740;22.908;2024-01-30T01:38:27;7.55;;;3.45;;
45792;SDS011;31495;42.740;22.908;2024-01-30T01:39:26;6.97;;;3.90;;
45792;SDS011;31495;42.740;22.908;2024-01-30T01:40:26;9.73;;;4.10;;
45792;SDS011;31495;42.740;22.908;2024-01-30T01:41:29;7.45;;;3.83;;
45792;SDS011;31495;42.740;22.908;2024-01-30T01:42:30;9.50;;;4.30;;
45792;SDS011;31495;42.740;22.908;2024-01-30T01:43:30;11.68;;;4.43;;
45792;SDS011;31495;42.740;22.908;2024-01-30T01:44:29;10.35;;;4.57;;
45792;SDS011;31495;42.740;22.908;2024-01-30T01:45:29;10.80;;;4.28;;
45792;SDS011;31495;42.740;22.908;2024-01-30T01:46:30;13.93;;;4.78;;
45792;SDS011;31495;42.740;22.908;2024-01-30T01:47:31;15.00;;;5.75;;
45792;SDS011;31495;42.740;22.908;2024-01-30T01:48:31;14.20;;;5.15;;
45792;SDS011;31495;42.740;22.908;2024-01-30T01:49:31;16.10;;;6.03;;
45792;SDS011;31495;42.740;22.908;2024-01-30T01:50:31;11.02;;;4.50;;
45792;SDS011;31495;42.740;22.908;2024-01-30T01:51:31;11.73;;;5.20;;
45792;SDS011;31495;42.740;22.908;2024-01-30T01:52:33;16.30;;;6.45;;
45792;SDS011;31495;42.740;22.908;2024-01-30T01:53:33;16.58;;;6.07;;
45792;SDS011;31495;42.740;22.908;2024-01-30T01:54:32;13.70;;;6.85;;
45792;SDS011;31495;42.740;22.908;2024-01-30T01:55:32;13.65;;;6.45;;
45792;SDS011;31495;42.740;22.908;2024-01-30T01:56:32;15.57;;;5.50;;
45792;SDS011;31495;42.740;22.908;2024-01-30T01:57:33;11.15;;;5.18;;
45792;SDS011;31495;42.740;22.908;2024-01-30T01:58:33;11.75;;;5.38;;
45792;SDS011;31495;42.740;22.908;2024-01-30T01:59:33;11.35;;;5.22;;
45792;SDS011;31495;42.740;22.908;2024-01-30T02:00:32;12.27;;;5.60;;
45792;SDS011;31495;42.740;22.908;2024-01-30T02:01:32;15.88;;;6.47;;
45792;SDS011;31495;42.740;22.908;2024-01-30T02:02:32;11.48;;;5.85;;
45792;SDS011;31495;42.740;22.908;2024-01-30T02:03:35;11.20;;;5.28;;
45792;SDS011;31495;42.740;22.908;2024-01-30T02:04:34;11.20;;;5.28;;
45792;SDS011;31495;42.740;22.908;2024-01-30T02:05:34;12.80;;;5.53;;
45792;SDS011;31495;42.740;22.908;2024-01-30T02:06:34;12.10;;;4.65;;
45792;SDS011;31495;42.740;22.908;2024-01-30T02:07:34;14.82;;;5.75;;
45792;SDS011;31495;42.740;22.908;2024-01-30T02:08:33;15.50;;;5.70;;
45792;SDS011;31495;42.740;22.908;2024-01-30T02:09:33;9.93;;;5.28;;
45792;SDS011;31495;42.740;22.908;2024-01-30T02:10:32;9.52;;;3.92;;
45792;SDS011;31495;42.740;22.908;2024-01-30T02:11:32;8.35;;;3.90;;
45792;SDS011;31495;42.740;22.908;2024-01-30T02:12:32;6.50;;;3.40;;
45792;SDS011;31495;42.740;22.908;2024-01-30T02:13:32;10.88;;;3.67;;
45792;SDS011;31495;42.740;22.908;2024-01-30T02:14:31;6.80;;;3.50;;
45792;SDS011;31495;42.740;22.908;2024-01-30T02:15:31;7.65;;;2.85;;
45792;SDS011;31495;42.740;22.908;2024-01-30T02:16:31;7.70;;;2.78;;
45792;SDS011;31495;42.740;22.908;2024-01-30T02:17:31;10.68;;;3.80;;
45792;SDS011;31495;42.740;22.908;2024-01-30T02:18:30;9.23;;;4.18;;
45792;SDS011;31495;42.740;22.908;2024-01-30T02:19:29;11.43;;;4.15;;
45792;SDS011;31495;42.740;22.908;2024-01-30T02:20:29;8.90;;;4.13;;
45792;SDS011;31495;42.740;22.908;2024-01-30T02:21:30;13.30;;;4.97;;
45792;SDS011;31495;42.740;22.908;2024-01-30T02:22:29;7.40;;;4.15;;
45792;SDS011;31495;42.740;22.908;2024-01-30T02:23:31;11.30;;;4.65;;
45792;SDS011;31495;42.740;22.908;2024-01-30T02:25:36;11.02;;;4.65;;
45792;SDS011;31495;42.740;22.908;2024-01-30T02:26:38;10.55;;;4.15;;
45792;SDS011;31495;42.740;22.908;2024-01-30T02:27:37;8.52;;;3.92;;
45792;SDS011;31495;42.740;22.908;2024-01-30T02:28:37;11.95;;;5.00;;
45792;SDS011;31495;42.740;22.908;2024-01-30T02:29:37;12.00;;;4.97;;
45792;SDS011;31495;42.740;22.908;2024-01-30T02:30:36;14.13;;;5.47;;
45792;SDS011;31495;42.740;22.908;2024-01-30T02:31:36;13.35;;;6.13;;
45792;SDS011;31495;42.740;22.908;2024-01-30T02:32:35;13.32;;;6.03;;
45792;SDS011;31495;42.740;22.908;2024-01-30T02:33:34;13.55;;;5.88;;
45792;SDS011;31495;42.740;22.908;2024-01-30T02:34:34;14.27;;;5.15;;
45792;SDS011;31495;42.740;22.908;2024-01-30T02:35:34;10.35;;;5.05;;
45792;SDS011;31495;42.740;22.908;2024-01-30T02:36:33;11.45;;;5.10;;
45792;SDS011;31495;42.740;22.908;2024-01-30T02:37:32;11.57;;;4.63;;
45792;SDS011;31495;42.740;22.908;2024-01-30T02:38:32;11.18;;;4.78;;
45792;SDS011;31495;42.740;22.908;2024-01-30T02:39:31;9.35;;;4.03;;
45792;SDS011;31495;42.740;22.908;2024-01-30T02:40:31;7.97;;;4.10;;
45792;SDS011;31495;42.740;22.908;2024-01-30T02:41:31;8.38;;;3.80;;
45792;SDS011;31495;42.740;22.908;2024-01-30T02:42:30;7.07;;;4.13;;
45792;SDS011;31495;42.740;22.908;2024-01-30T02:43:30;7.03;;;2.80;;
45792;SDS011;31495;42.740;22.908;2024-01-30T02:44:29;6.82;;;4.13;;
45792;SDS011;31495;42.740;22.908;2024-01-30T02:45:29;13.48;;;4.20;;
45792;SDS011;31495;42.740;22.908;2024-01-30T02:46:29;18.35;;;6.20;;
45792;SDS011;31495;42.740;22.908;2024-01-30T02:47:29;13.88;;;4.70;;
45792;SDS011;31495;42.740;22.908;2024-01-30T02:48:29;8.25;;;4.18;;
45792;SDS011;31495;42.740;22.908;2024-01-30T02:49:30;6.57;;;2.97;;
45792;SDS011;31495;42.740;22.908;2024-01-30T02:50:30;11.30;;;3.40;;
45792;SDS011;31495;42.740;22.908;2024-01-30T02:51:30;5.50;;;3.05;;
45792;SDS011;31495;42.740;22.908;2024-01-30T02:52:30;5.97;;;3.05;;
45792;SDS011;31495;42.740;22.908;2024-01-30T02:53:30;6.03;;;2.80;;
45792;SDS011;31495;42.740;22.908;2024-01-30T02:54:30;5.15;;;2.78;;
45792;SDS011;31495;42.740;22.908;2024-01-30T02:55:30;5.68;;;3.20;;
45792;SDS011;31495;42.740;22.908;2024-01-30T02:56:30;7.03;;;2.70;;
45792;SDS011;31495;42.740;22.908;2024-01-30T02:57:30;7.45;;;3.60;;
45792;SDS011;31495;42.740;22.908;2024-01-30T02:58:30;7.28;;;3.45;;
45792;SDS011;31495;42.740;22.908;2024-01-30T02:59:30;6.07;;;3.47;;
45792;SDS011;31495;42.740;22.908;2024-01-30T03:00:32;8.25;;;3.72;;
45792;SDS011;31495;42.740;22.908;2024-01-30T03:01:32;9.80;;;4.68;;
45792;SDS011;31495;42.740;22.908;2024-01-30T03:02:32;13.73;;;5.82;;
45792;SDS011;31495;42.740;22.908;2024-01-30T03:03:32;8.98;;;3.85;;
45792;SDS011;31495;42.740;22.908;2024-01-30T03:04:33;9.43;;;4.00;;
45792;SDS011;31495;42.740;22.908;2024-01-30T03:05:33;9.55;;;4.10;;
45792;SDS011;31495;42.740;22.908;2024-01-30T03:06:32;7.57;;;3.60;;
45792;SDS011;31495;42.740;22.908;2024-01-30T03:07:33;9.23;;;3.53;;
45792;SDS011;31495;42.740;22.908;2024-01-30T03:08:32;7.63;;;3.27;;
45792;SDS011;31495;42.740;22.908;2024-01-30T03:09:34;6.93;;;3.95;;
45792;SDS011;31495;42.740;22.908;2024-01-30T03:10:34;9.15;;;5.10;;
45792;SDS011;31495;42.740;22.908;2024-01-30T03:11:33;15.00;;;4.82;;
45792;SDS011;31495;42.740;22.908;2024-01-30T03:12:33;9.32;;;5.15;;
45792;SDS011;31495;42.740;22.908;2024-01-30T03:13:33;10.80;;;4.63;;
45792;SDS011;31495;42.740;22.908;2024-01-30T03:14:32;9.85;;;4.93;;
45792;SDS011;31495;42.740;22.908;2024-01-30T03:15:32;12.95;;;5.68;;
45792;SDS011;31495;42.740;22.908;2024-01-30T03:16:32;10.38;;;5.88;;
45792;SDS011;31495;42.740;22.908;2024-01-30T03:17:32;12.38;;;5.15;;
45792;SDS011;31495;42.740;22.908;2024-01-30T03:18:32;10.65;;;5.10;;
45792;SDS011;31495;42.740;22.908;2024-01-30T03:19:32;9.77;;;4.57;;
45792;SDS011;31495;42.740;22.908;2024-01-30T03:20:32;7.45;;;3.22;;
45792;SDS011;31495;42.740;22.908;2024-01-30T03:21:32;9.10;;;4.45;;
45792;SDS011;31495;42.740;22.908;2024-01-30T03:22:32;6.63;;;2.78;;
45792;SDS011;31495;42.740;22.908;2024-01-30T03:23:32;6.43;;;3.05;;
45792;SDS011;31495;42.740;22.908;2024-01-30T03:24:32;5.90;;;3.05;;
45792;SDS011;31495;42.740;22.908;2024-01-30T03:25:33;9.05;;;3.60;;
45792;SDS011;31495;42.740;22.908;2024-01-30T03:26:33;4.80;;;2.30;;
45792;SDS011;31495;42.740;22.908;2024-01-30T03:27:33;5.35;;;2.78;;
45792;SDS011;31495;42.740;22.908;2024-01-30T03:28:33;8.73;;;2.95;;
45792;SDS011;31495;42.740;22.908;2024-01-30T03:29:33;6.78;;;3.00;;
45792;SDS011;31495;42.740;22.908;2024-01-30T03:30:34;11.32;;;3.13;;
45792;SDS011;31495;42.740;22.908;2024-01-30T03:31:34;6.45;;;3.33;;
45792;SDS011;31495;42.740;22.908;2024-01-30T03:32:33;3.80;;;2.20;;
45792;SDS011;31495;42.740;22.908;2024-01-30T03:33:33;4.80;;;1.90;;
45792;SDS011;31495;42.740;22.908;2024-01-30T03:34:36;5.28;;;2.30;;
45792;SDS011;31495;42.740;22.908;2024-01-30T03:35:35;4.82;;;2.30;;
45792;SDS011;31495;42.740;22.908;2024-01-30T03:36:34;5.30;;;2.28;;
45792;SDS011;31495;42.740;22.908;2024-01-30T03:37:34;5.78;;;2.63;;
45792;SDS011;31495;42.740;22.908;2024-01-30T03:38:34;5.38;;;2.40;;
45792;SDS011;31495;42.740;22.908;2024-01-30T03:39:34;6.70;;;3.10;;
45792;SDS011;31495;42.740;22.908;2024-01-30T03:40:34;9.95;;;3.88;;
45792;SDS011;31495;42.740;22.908;2024-01-30T03:41:36;10.07;;;4.13;;
45792;SDS011;31495;42.740;22.908;2024-01-30T03:42:36;10.63;;;3.80;;
45792;SDS011;31495;42.740;22.908;2024-01-30T03:43:35;5.38;;;3.00;;
45792;SDS011;31495;42.740;22.908;2024-01-30T03:44:35;9.18;;;2.97;;
45792;SDS011;31495;42.740;22.908;2024-01-30T03:45:35;7.00;;;3.08;;
45792;SDS011;31495;42.740;22.908;2024-01-30T03:46:34;10.45;;;4.90;;
45792;SDS011;31495;42.740;22.908;2024-01-30T03:47:34;8.25;;;4.82;;
45792;SDS011;31495;42.740;22.908;2024-01-30T03:48:34;12.55;;;5.43;;
45792;SDS011;31495;42.740;22.908;2024-01-30T03:49:35;11.90;;;4.50;;
45792;SDS011;31495;42.740;22.908;2024-01-30T03:50:35;9.48;;;3.72;;
45792;SDS011;31495;42.740;22.908;2024-01-30T03:51:35;12.75;;;4.93;;
45792;SDS011;31495;42.740;22.908;2024-01-30T03:52:35;10.40;;;4.65;;
45792;SDS011;31495;42.740;22.908;2024-01-30T03:53:35;13.60;;;6.10;;
45792;SDS011;31495;42.740;22.908;2024-01-30T03:54:35;31.60;;;12.35;;
45792;SDS011;31495;42.740;22.908;2024-01-30T03:55:35;30.15;;;13.73;;
45792;SDS011;31495;42.740;22.908;2024-01-30T03:56:35;17.30;;;8.85;;
45792;SDS011;31495;42.740;22.908;2024-01-30T03:57:35;16.60;;;6.95;;
45792;SDS011;31495;42.740;22.908;2024-01-30T03:58:35;17.10;;;7.97;;
45792;SDS011;31495;42.740;22.908;2024-01-30T03:59:35;17.23;;;7.45;;
45792;SDS011;31495;42.740;22.908;2024-01-30T04:00:35;14.90;;;7.07;;
45792;SDS011;31495;42.740;22.908;2024-01-30T04:01:36;10.27;;;4.95;;
45792;SDS011;31495;42.740;22.908;2024-01-30T04:02:36;7.63;;;3.92;;
45792;SDS011;31495;42.740;22.908;2024-01-30T04:03:36;9.93;;;4.35;;
45792;SDS011;31495;42.740;22.908;2024-01-30T04:04:38;8.32;;;3.63;;
45792;SDS011;31495;42.740;22.908;2024-01-30T04:05:38;10.68;;;4.65;;
45792;SDS011;31495;42.740;22.908;2024-01-30T04:06:38;8.43;;;4.03;;
45792;SDS011;31495;42.740;22.908;2024-01-30T04:07:37;5.40;;;2.38;;
45792;SDS011;31495;42.740;22.908;2024-01-30T04:08:37;5.35;;;2.33;;
45792;SDS011;31495;42.740;22.908;2024-01-30T04:09:38;6.55;;;2.55;;
45792;SDS011;31495;42.740;22.908;2024-01-30T04:10:38;5.80;;;3.05;;
45792;SDS011;31495;42.740;22.908;2024-01-30T04:11:37;5.90;;;2.83;;
45792;SDS011;31495;42.740;22.908;2024-01-30T04:12:36;5.60;;;2.80;;
45792;SDS011;31495;42.740;22.908;2024-01-30T04:13:37;5.10;;;2.45;;
45792;SDS011;31495;42.740;22.908;2024-01-30T04:14:38;9.73;;;3.55;;
45792;SDS011;31495;42.740;22.908;2024-01-30T04:15:38;12.02;;;3.42;;
45792;SDS011;31495;42.740;22.908;2024-01-30T04:16:39;8.40;;;3.70;;
45792;SDS011;31495;42.740;22.908;2024-01-30T04:17:38;9.07;;;4.13;;
45792;SDS011;31495;42.740;22.908;2024-01-30T04:18:39;8.82;;;3.85;;
45792;SDS011;31495;42.740;22.908;2024-01-30T04:19:38;11.05;;;4.45;;
45792;SDS011;31495;42.740;22.908;2024-01-30T04:20:38;11.95;;;4.47;;
45792;SDS011;31495;42.740;22.908;2024-01-30T04:21:37;13.20;;;5.30;;
45792;SDS011;31495;42.740;22.908;2024-01-30T04:22:37;16.02;;;7.63;;
45792;SDS011;31495;42.740;22.908;2024-01-30T04:23:37;16.08;;;8.32;;
45792;SDS011;31495;42.740;22.908;2024-01-30T04:24:38;21.58;;;7.25;;
45792;SDS011;31495;42.740;22.908;2024-01-30T04:25:38;14.07;;;6.20;;
45792;SDS011;31495;42.740;22.908;2024-01-30T04:26:40;11.05;;;5.63;;
45792;SDS011;31495;42.740;22.908;2024-01-30T04:27:39;9.82;;;4.93;;
45792;SDS011;31495;42.740;22.908;2024-01-30T04:28:41;7.88;;;3.85;;
45792;SDS011;31495;42.740;22.908;2024-01-30T04:29:41;8.00;;;3.47;;
45792;SDS011;31495;42.740;22.908;2024-01-30T04:30:40;10.27;;;4.28;;
45792;SDS011;31495;42.740;22.908;2024-01-30T04:31:39;9.45;;;4.43;;
45792;SDS011;31495;42.740;22.908;2024-01-30T04:32:39;7.65;;;3.47;;
45792;SDS011;31495;42.740;22.908;2024-01-30T04:33:38;6.68;;;3.30;;
45792;SDS011;31495;42.740;22.908;2024-01-30T04:34:38;6.80;;;2.88;;
45792;SDS011;31495;42.740;22.908;2024-01-30T04:35:38;5.60;;;2.70;;
45792;SDS011;31495;42.740;22.908;2024-01-30T04:36:38;6.32;;;2.92;;
45792;SDS011;31495;42.740;22.908;2024-01-30T04:37:39;8.02;;;3.83;;
45792;SDS011;31495;42.740;22.908;2024-01-30T04:38:39;9.10;;;4.03;;
45792;SDS011;31495;42.740;22.908;2024-01-30T04:39:39;14.93;;;4.97;;
45792;SDS011;31495;42.740;22.908;2024-01-30T04:40:39;11.40;;;5.32;;
45792;SDS011;31495;42.740;22.908;2024-01-30T04:41:39;11.82;;;5.75;;
45792;SDS011;31495;42.740;22.908;2024-01-30T04:42:39;13.15;;;6.40;;
45792;SDS011;31495;42.740;22.908;2024-01-30T04:43:39;15.25;;;6.65;;
45792;SDS011;31495;42.740;22.908;2024-01-30T04:44:39;17.67;;;7.20;;
45792;SDS011;31495;42.740;22.908;2024-01-30T04:45:39;14.88;;;5.97;;
45792;SDS011;31495;42.740;22.908;2024-01-30T04:46:39;15.13;;;6.63;;
45792;SDS011;31495;42.740;22.908;2024-01-30T04:47:39;10.77;;;4.88;;
45792;SDS011;31495;42.740;22.908;2024-01-30T04:48:40;7.68;;;3.90;;
45792;SDS011;31495;42.740;22.908;2024-01-30T04:49:40;7.13;;;3.95;;
45792;SDS011;31495;42.740;22.908;2024-01-30T04:50:40;6.55;;;3.22;;
45792;SDS011;31495;42.740;22.908;2024-01-30T04:51:40;8.73;;;3.90;;
45792;SDS011;31495;42.740;22.908;2024-01-30T04:52:40;6.55;;;2.80;;
45792;SDS011;31495;42.740;22.908;2024-01-30T04:53:40;8.07;;;3.33;;
45792;SDS011;31495;42.740;22.908;2024-01-30T04:54:40;6.07;;;2.58;;
45792;SDS011;31495;42.740;22.908;2024-01-30T04:55:40;7.80;;;3.55;;
45792;SDS011;31495;42.740;22.908;2024-01-30T04:56:40;7.82;;;3.13;;
45792;SDS011;31495;42.740;22.908;2024-01-30T04:57:40;9.70;;;4.60;;
45792;SDS011;31495;42.740;22.908;2024-01-30T04:58:40;14.57;;;6.63;;
45792;SDS011;31495;42.740;22.908;2024-01-30T04:59:40;18.45;;;8.43;;
45792;SDS011;31495;42.740;22.908;2024-01-30T05:00:41;12.50;;;6.45;;
45792;SDS011;31495;42.740;22.908;2024-01-30T05:01:41;10.70;;;5.63;;
45792;SDS011;31495;42.740;22.908;2024-01-30T05:02:41;11.85;;;5.70;;
45792;SDS011;31495;42.740;22.908;2024-01-30T05:03:41;7.45;;;3.45;;
45792;SDS011;31495;42.740;22.908;2024-01-30T05:04:41;8.02;;;3.70;;
45792;SDS011;31495;42.740;22.908;2024-01-30T05:05:41;11.88;;;4.80;;
45792;SDS011;31495;42.740;22.908;2024-01-30T05:06:41;12.15;;;4.15;;
45792;SDS011;31495;42.740;22.908;2024-01-30T05:07:41;10.30;;;6.15;;
45792;SDS011;31495;42.740;22.908;2024-01-30T05:08:41;16.98;;;7.93;;
45792;SDS011;31495;42.740;22.908;2024-01-30T05:09:41;16.00;;;6.88;;
45792;SDS011;31495;42.740;22.908;2024-01-30T05:10:41;16.75;;;7.30;;
45792;SDS011;31495;42.740;22.908;2024-01-30T05:11:42;19.52;;;9.85;;
45792;SDS011;31495;42.740;22.908;2024-01-30T05:12:42;18.38;;;8.25;;
45792;SDS011;31495;42.740;22.908;2024-01-30T05:13:42;12.20;;;7.28;;
45792;SDS011;31495;42.740;22.908;2024-01-30T05:14:42;15.45;;;7.72;;
45792;SDS011;31495;42.740;22.908;2024-01-30T05:15:42;13.15;;;7.88;;
45792;SDS011;31495;42.740;22.908;2024-01-30T05:16:42;12.52;;;6.95;;
45792;SDS011;31495;42.740;22.908;2024-01-30T05:17:46;14.60;;;7.30;;
45792;SDS011;31495;42.740;22.908;2024-01-30T05:18:45;13.98;;;7.22;;
45792;SDS011;31495;42.740;22.908;2024-01-30T05:19:45;18.80;;;9.40;;
45792;SDS011;31495;42.740;22.908;2024-01-30T05:20:44;17.30;;;8.95;;
45792;SDS011;31495;42.740;22.908;2024-01-30T05:21:43;99.80;;;37.22;;
45792;SDS011;31495;42.740;22.908;2024-01-30T05:22:43;81.60;;;37.13;;
45792;SDS011;31495;42.740;22.908;2024-01-30T05:23:44;76.60;;;32.47;;
45792;SDS011;31495;42.740;22.908;2024-01-30T05:24:43;43.22;;;21.25;;
45792;SDS011;31495;42.740;22.908;2024-01-30T05:25:43;49.95;;;25.65;;
45792;SDS011;31495;42.740;22.908;2024-01-30T05:26:43;102.13;;;44.65;;
45792;SDS011;31495;42.740;22.908;2024-01-30T05:27:43;19.55;;;10.80;;
45792;SDS011;31495;42.740;22.908;2024-01-30T05:28:43;19.70;;;12.23;;
45792;SDS011;31495;42.740;22.908;2024-01-30T05:29:47;12.13;;;7.00;;
45792;SDS011;31495;42.740;22.908;2024-01-30T05:30:47;12.73;;;6.28;;
45792;SDS011;31495;42.740;22.908;2024-01-30T05:31:46;11.25;;;7.68;;
45792;SDS011;31495;42.740;22.908;2024-01-30T05:32:45;7.18;;;4.88;;
45792;SDS011;31495;42.740;22.908;2024-01-30T05:33:45;7.53;;;4.13;;
45792;SDS011;31495;42.740;22.908;2024-01-30T05:34:45;6.70;;;3.92;;
45792;SDS011;31495;42.740;22.908;2024-01-30T05:35:44;6.30;;;2.70;;
45792;SDS011;31495;42.740;22.908;2024-01-30T05:36:44;8.90;;;3.13;;
45792;SDS011;31495;42.740;22.908;2024-01-30T05:37:44;8.63;;;3.78;;
45792;SDS011;31495;42.740;22.908;2024-01-30T05:38:44;9.95;;;5.47;;
45792;SDS011;31495;42.740;22.908;2024-01-30T05:39:44;11.13;;;6.15;;
45792;SDS011;31495;42.740;22.908;2024-01-30T05:40:44;9.40;;;5.35;;
45792;SDS011;31495;42.740;22.908;2024-01-30T05:41:44;15.43;;;6.05;;
45792;SDS011;31495;42.740;22.908;2024-01-30T05:42:44;10.30;;;5.40;;
45792;SDS011;31495;42.740;22.908;2024-01-30T05:43:44;12.45;;;6.28;;
45792;SDS011;31495;42.740;22.908;2024-01-30T05:44:43;10.55;;;5.45;;
45792;SDS011;31495;42.740;22.908;2024-01-30T05:45:44;9.98;;;5.95;;
45792;SDS011;31495;42.740;22.908;2024-01-30T05:46:44;12.80;;;5.70;;
45792;SDS011;31495;42.740;22.908;2024-01-30T05:47:44;13.20;;;5.40;;
45792;SDS011;31495;42.740;22.908;2024-01-30T05:48:45;11.00;;;5.80;;
45792;SDS011;31495;42.740;22.908;2024-01-30T05:49:45;11.93;;;6.07;;
45792;SDS011;31495;42.740;22.908;2024-01-30T05:50:45;13.15;;;5.80;;
45792;SDS011;31495;42.740;22.908;2024-01-30T05:51:45;17.55;;;7.63;;
45792;SDS011;31495;42.740;22.908;2024-01-30T05:52:45;20.80;;;10.18;;
45792;SDS011;31495;42.740;22.908;2024-01-30T05:53:45;24.55;;;11.23;;